sensor_id;sensor_type;location;lat;lon;timestamp;P1;durP1;ratioP1;P2;durP2;ratioP2
49556;SDS011;35462;45.048;7.666;2022-12-29T00:02:04;28.63;;;19.42;;
49556;SDS011;35462;45.048;7.666;2022-12-29T00:17:25;30.77;;;22.65;;
49556;SDS011;35462;45.048;7.666;2022-12-29T00:32:41;34.53;;;23.58;;
49556;SDS011;35462;45.048;7.666;2022-12-29T00:48:11;32.55;;;22.38;;
49556;SDS011;35462;45.048;7.666;2022-12-29T01:03:27;35.85;;;23.73;;
49556;SDS011;35462;45.048;7.666;2022-12-29T01:18:43;33.33;;;22.73;;
49556;SDS011;35462;45.048;7.666;2022-12-29T01:33:59;32.53;;;22.25;;
49556;SDS011;35462;45.048;7.666;2022-12-29T01:49:16;31.63;;;20.85;;
49556;SDS011;35462;45.048;7.666;2022-12-29T02:04:39;31.48;;;21.38;;
49556;SDS011;35462;45.048;7.666;2022-12-29T02:35:28;32.72;;;22.33;;
49556;SDS011;35462;45.048;7.666;2022-12-29T03:06:21;21.00;;;13.68;;
49556;SDS011;35462;45.048;7.666;2022-12-29T03:21:51;24.98;;;15.10;;
49556;SDS011;35462;45.048;7.666;2022-12-29T03:37:30;24.40;;;15.70;;
49556;SDS011;35462;45.048;7.666;2022-12-29T03:52:51;19.85;;;13.65;;
49556;SDS011;35462;45.048;7.666;2022-12-29T04:08:07;20.48;;;13.02;;
49556;SDS011;35462;45.048;7.666;2022-12-29T04:23:23;20.67;;;13.57;;
49556;SDS011;35462;45.048;7.666;2022-12-29T04:38:39;19.08;;;13.18;;
49556;SDS011;35462;45.048;7.666;2022-12-29T04:53:55;21.42;;;12.35;;
49556;SDS011;35462;45.048;7.666;2022-12-29T05:09:13;16.95;;;11.38;;
49556;SDS011;35462;45.048;7.666;2022-12-29T05:24:29;20.02;;;13.90;;
49556;SDS011;35462;45.048;7.666;2022-12-29T05:39:46;20.25;;;13.10;;
49556;SDS011;35462;45.048;7.666;2022-12-29T05:55:04;22.38;;;13.95;;
49556;SDS011;35462;45.048;7.666;2022-12-29T06:10:23;21.80;;;13.47;;
49556;SDS011;35462;45.048;7.666;2022-12-29T06:25:46;25.08;;;15.38;;
49556;SDS011;35462;45.048;7.666;2022-12-29T06:41:03;20.65;;;16.13;;
49556;SDS011;35462;45.048;7.666;2022-12-29T06:56:33;21.10;;;15.50;;
49556;SDS011;35462;45.048;7.666;2022-12-29T07:11:49;23.35;;;15.57;;
49556;SDS011;35462;45.048;7.666;2022-12-29T07:27:05;17.88;;;14.13;;
49556;SDS011;35462;45.048;7.666;2022-12-29T07:42:21;18.88;;;13.93;;
49556;SDS011;35462;45.048;7.666;2022-12-29T07:57:40;17.35;;;12.50;;
49556;SDS011;35462;45.048;7.666;2022-12-29T08:12:56;24.38;;;15.93;;
49556;SDS011;35462;45.048;7.666;2022-12-29T08:28:13;21.83;;;13.95;;
49556;SDS011;35462;45.048;7.666;2022-12-29T08:43:28;24.80;;;16.08;;
49556;SDS011;35462;45.048;7.666;2022-12-29T08:58:45;19.77;;;15.27;;
49556;SDS011;35462;45.048;7.666;2022-12-29T09:14:00;20.40;;;13.95;;
49556;SDS011;35462;45.048;7.666;2022-12-29T09:29:16;21.73;;;14.77;;
49556;SDS011;35462;45.048;7.666;2022-12-29T10:00:05;20.08;;;14.10;;
49556;SDS011;35462;45.048;7.666;2022-12-29T10:15:40;21.45;;;14.70;;
49556;SDS011;35462;45.048;7.666;2022-12-29T10:31:14;17.90;;;12.97;;
49556;SDS011;35462;45.048;7.666;2022-12-29T10:46:36;23.80;;;14.50;;
49556;SDS011;35462;45.048;7.666;2022-12-29T11:02:00;26.95;;;15.60;;
49556;SDS011;35462;45.048;7.666;2022-12-29T11:33:21;24.97;;;15.43;;
49556;SDS011;35462;45.048;7.666;2022-12-29T11:48:38;26.40;;;14.13;;
49556;SDS011;35462;45.048;7.666;2022-12-29T12:03:59;27.60;;;18.87;;
49556;SDS011;35462;45.048;7.666;2022-12-29T12:19:21;26.10;;;19.08;;
49556;SDS011;35462;45.048;7.666;2022-12-29T12:34:46;24.02;;;16.33;;
49556;SDS011;35462;45.048;7.666;2022-12-29T12:50:07;23.90;;;17.85;;
49556;SDS011;35462;45.048;7.666;2022-12-29T13:05:49;24.20;;;15.82;;
49556;SDS011;35462;45.048;7.666;2022-12-29T13:21:07;21.70;;;16.10;;
49556;SDS011;35462;45.048;7.666;2022-12-29T13:36:36;26.20;;;16.67;;
49556;SDS011;35462;45.048;7.666;2022-12-29T13:51:59;21.00;;;13.55;;
49556;SDS011;35462;45.048;7.666;2022-12-29T14:07:26;24.60;;;14.23;;
49556;SDS011;35462;45.048;7.666;2022-12-29T14:38:30;17.42;;;12.80;;
49556;SDS011;35462;45.048;7.666;2022-12-29T14:53:48;19.27;;;13.07;;
49556;SDS011;35462;45.048;7.666;2022-12-29T15:09:10;15.90;;;11.48;;
49556;SDS011;35462;45.048;7.666;2022-12-29T15:24:40;18.58;;;12.05;;
49556;SDS011;35462;45.048;7.666;2022-12-29T15:39:58;20.65;;;15.00;;
49556;SDS011;35462;45.048;7.666;2022-12-29T15:55:24;18.88;;;12.80;;
49556;SDS011;35462;45.048;7.666;2022-12-29T16:10:41;20.40;;;13.75;;
49556;SDS011;35462;45.048;7.666;2022-12-29T16:25:58;22.35;;;12.68;;
49556;SDS011;35462;45.048;7.666;2022-12-29T16:56:46;22.42;;;13.98;;
49556;SDS011;35462;45.048;7.666;2022-12-29T17:12:04;21.10;;;13.18;;
49556;SDS011;35462;45.048;7.666;2022-12-29T17:42:42;20.10;;;13.30;;
49556;SDS011;35462;45.048;7.666;2022-12-29T17:58:00;19.77;;;13.13;;
49556;SDS011;35462;45.048;7.666;2022-12-29T18:13:18;22.10;;;14.23;;
49556;SDS011;35462;45.048;7.666;2022-12-29T18:28:36;24.63;;;16.10;;
49556;SDS011;35462;45.048;7.666;2022-12-29T18:43:52;19.67;;;12.68;;
49556;SDS011;35462;45.048;7.666;2022-12-29T18:59:08;20.67;;;15.60;;
49556;SDS011;35462;45.048;7.666;2022-12-29T19:14:24;24.38;;;15.70;;
49556;SDS011;35462;45.048;7.666;2022-12-29T19:29:40;25.55;;;14.82;;
49556;SDS011;35462;45.048;7.666;2022-12-29T19:44:55;20.95;;;14.10;;
49556;SDS011;35462;45.048;7.666;2022-12-29T20:00:11;20.88;;;14.43;;
49556;SDS011;35462;45.048;7.666;2022-12-29T20:15:28;24.13;;;14.07;;
49556;SDS011;35462;45.048;7.666;2022-12-29T20:30:44;19.10;;;13.40;;
49556;SDS011;35462;45.048;7.666;2022-12-29T20:45:59;27.00;;;17.42;;
49556;SDS011;35462;45.048;7.666;2022-12-29T21:01:16;22.83;;;15.15;;
49556;SDS011;35462;45.048;7.666;2022-12-29T21:16:34;26.73;;;17.57;;
49556;SDS011;35462;45.048;7.666;2022-12-29T21:31:50;29.35;;;18.85;;
49556;SDS011;35462;45.048;7.666;2022-12-29T21:47:06;30.98;;;19.83;;
49556;SDS011;35462;45.048;7.666;2022-12-29T22:02:22;32.45;;;21.40;;
49556;SDS011;35462;45.048;7.666;2022-12-29T22:17:57;27.83;;;19.10;;
49556;SDS011;35462;45.048;7.666;2022-12-29T22:33:14;31.23;;;19.17;;
49556;SDS011;35462;45.048;7.666;2022-12-29T22:48:31;26.50;;;17.92;;
49556;SDS011;35462;45.048;7.666;2022-12-29T23:03:47;24.80;;;15.73;;
49556;SDS011;35462;45.048;7.666;2022-12-29T23:19:03;20.83;;;13.45;;
49556;SDS011;35462;45.048;7.666;2022-12-29T23:34:19;18.52;;;12.00;;
49556;SDS011;35462;45.048;7.666;2022-12-29T23:49:35;18.45;;;12.35;;
